Shindler, South Dakota
Current Conditions -  °F | °C
As of 8:56 AM on Saturday 25 Oct 2014 (Local Time) from KFSD Reporting Station
Few Clouds Few Clouds  
Wind Chill: 47°   Ceiling: Unl
Heat Index: 47°   Visibility: 10mi
Dew Point: 42°   Wind: 3mph
Humidity: 83%   Direction: 290°WNW
Pressure: 30.13"   Gusts: NA
Location:  43.5199°N, 96.7933°W
Report Text: KFSD 251356Z 29003KT 10SM FEW150 08/06 A3013 RMK AO2 SLP207 T00830056
Loading
Personal Weather Stations






























Interactive Weather Map New forecast layout! Learn more

10-Day Weather Forecast

Advertisements
Track Severe Weather on mobile